createdAt,value
2023-05-10T00:01:12.915Z,1.70
2023-05-10T00:03:41.258Z,2.20
2023-05-10T00:06:08.848Z,2.00
2023-05-10T00:08:36.181Z,1.75
2023-05-10T00:11:04.998Z,1.60
2023-05-10T00:13:34.381Z,1.88
2023-05-10T00:16:01.792Z,2.33
2023-05-10T00:18:29.167Z,2.85
2023-05-10T00:20:58.989Z,3.00
2023-05-10T00:23:27.594Z,2.78
2023-05-10T00:25:54.974Z,5.10
2023-05-10T00:28:22.421Z,5.70
2023-05-10T00:30:52.530Z,3.63
2023-05-10T00:33:20.069Z,1.85
2023-05-10T00:35:47.584Z,3.00
2023-05-10T00:38:16.290Z,3.83
2023-05-10T00:40:43.818Z,2.65
2023-05-10T00:43:19.003Z,2.30
2023-05-10T00:45:48.406Z,4.13
2023-05-10T00:48:18.581Z,2.55
2023-05-10T00:50:48.613Z,3.42
2023-05-10T00:53:19.551Z,3.05
2023-05-10T00:55:46.903Z,2.22
2023-05-10T00:58:14.995Z,3.03
2023-05-10T01:00:44.488Z,1.80
2023-05-10T01:03:12.621Z,2.15
2023-05-10T01:05:40.038Z,3.33
2023-05-10T01:08:07.856Z,3.00
2023-05-10T01:10:35.257Z,2.70
2023-05-10T01:13:06.218Z,2.90
2023-05-10T01:15:34.124Z,2.05
2023-05-10T01:18:02.070Z,1.27
2023-05-10T01:20:49.074Z,1.67
2023-05-10T01:23:43.860Z,2.10
2023-05-10T01:26:35.469Z,2.53
2023-05-10T01:29:32.922Z,1.83
2023-05-10T01:32:28.632Z,1.85
2023-05-10T01:35:07.087Z,1.35
2023-05-10T01:38:08.711Z,1.48
2023-05-10T01:40:56.149Z,3.67
2023-05-10T01:43:29.351Z,3.50
2023-05-10T01:46:12.056Z,2.65
2023-05-10T01:48:47.960Z,1.55
2023-05-10T01:51:24.005Z,2.20
2023-05-10T01:53:55.146Z,1.73
2023-05-10T01:56:25.248Z,2.17
2023-05-10T01:58:54.152Z,2.10
2023-05-10T02:01:22.940Z,2.33
2023-05-10T02:03:55.868Z,3.10
2023-05-10T02:06:26.295Z,1.80
2023-05-10T02:08:58.359Z,2.55
2023-05-10T02:11:30.188Z,2.00
2023-05-10T02:14:00.115Z,2.38
2023-05-10T02:16:31.927Z,2.25
2023-05-10T02:19:02.547Z,1.88
2023-05-10T02:21:31.812Z,2.60
2023-05-10T02:24:02.492Z,1.80
2023-05-10T02:26:32.455Z,1.73
2023-05-10T02:29:04.231Z,2.88
2023-05-10T02:31:34.109Z,2.83
2023-05-10T02:34:05.275Z,2.58
2023-05-10T02:36:33.217Z,6.07
2023-05-10T02:39:02.654Z,1.25
2023-05-10T02:41:33.541Z,1.70
2023-05-10T02:44:03.833Z,4.10
2023-05-10T02:46:34.206Z,1.75
2023-05-10T02:49:03.846Z,4.75
2023-05-10T02:51:35.789Z,2.22
2023-05-10T02:54:11.739Z,1.48
2023-05-10T02:56:43.903Z,2.50
2023-05-10T03:01:38.477Z,2.47
2023-05-10T03:04:06.253Z,2.75
2023-05-10T03:06:34.006Z,2.60
2023-05-10T03:09:04.433Z,2.55
2023-05-10T03:11:50.985Z,2.95
2023-05-10T03:15:03.375Z,2.40
2023-05-10T03:18:19.821Z,1.77
2023-05-10T03:20:50.438Z,1.38
2023-05-10T03:23:41.348Z,3.83
2023-05-10T03:26:10.793Z,2.15
2023-05-10T03:28:38.437Z,12.38
2023-05-10T03:31:10.105Z,2.65
2023-05-10T03:33:54.290Z,2.40
2023-05-10T03:36:26.161Z,1.45
2023-05-10T03:38:54.347Z,2.88
2023-05-10T03:41:22.356Z,3.97
2023-05-10T03:43:49.971Z,2.13
2023-05-10T03:46:17.430Z,1.52
2023-05-10T03:48:46.613Z,2.17
2023-05-10T03:51:13.953Z,3.10
2023-05-10T03:53:41.305Z,3.85
2023-05-10T03:56:08.830Z,1.52
2023-05-10T03:58:36.962Z,2.00
2023-05-10T04:01:04.932Z,1.60
2023-05-10T04:03:32.636Z,1.63
2023-05-10T04:06:02.473Z,3.42
2023-05-10T04:08:32.643Z,1.50
2023-05-10T04:11:19.012Z,2.45
2023-05-10T04:13:46.338Z,2.33
2023-05-10T04:16:13.721Z,2.25
2023-05-10T04:18:41.188Z,2.25
2023-05-10T04:21:14.938Z,1.77
2023-05-10T04:23:42.459Z,4.78
2023-05-10T04:26:12.373Z,3.55
2023-05-10T04:28:39.824Z,1.60
2023-05-10T04:31:09.663Z,1.88
2023-05-10T04:33:37.773Z,3.25
2023-05-10T04:36:06.166Z,4.93
2023-05-10T04:38:35.715Z,1.90
2023-05-10T04:41:10.080Z,1.83
2023-05-10T04:43:38.283Z,2.67
2023-05-10T04:46:06.896Z,3.17
2023-05-10T04:48:37.178Z,2.95
2023-05-10T04:51:14.584Z,3.05
2023-05-10T04:53:46.401Z,2.45
2023-05-10T04:56:18.773Z,1.88
2023-05-10T04:58:47.032Z,1.75
2023-05-10T05:01:15.158Z,3.30
2023-05-10T05:03:50.331Z,2.22
2023-05-10T05:06:22.094Z,2.10
2023-05-10T05:08:50.708Z,1.75
2023-05-10T05:11:18.752Z,1.98
2023-05-10T05:13:46.657Z,3.63
2023-05-10T05:16:14.007Z,5.18
2023-05-10T05:18:44.204Z,1.73
2023-05-10T05:21:21.146Z,1.60
2023-05-10T05:23:48.448Z,2.45
2023-05-10T05:26:16.220Z,2.92
2023-05-10T05:28:43.748Z,3.15
2023-05-10T05:31:11.235Z,3.53
2023-05-10T05:33:38.716Z,1.95
2023-05-10T05:36:07.210Z,2.67
2023-05-10T05:38:37.165Z,1.92
2023-05-10T05:41:04.479Z,2.75
2023-05-10T05:43:31.840Z,6.85
2023-05-10T05:45:59.343Z,2.15
2023-05-10T05:48:26.978Z,5.25
2023-05-10T05:50:58.133Z,3.92
2023-05-10T05:53:25.809Z,2.23
2023-05-10T05:55:55.398Z,1.77
2023-05-10T05:58:23.657Z,3.38
2023-05-10T06:00:53.013Z,3.00
2023-05-10T06:03:20.956Z,1.88
2023-05-10T06:05:49.078Z,4.72
2023-05-10T06:08:16.623Z,3.90
2023-05-10T06:10:44.156Z,4.72
2023-05-10T06:13:11.894Z,3.38
2023-05-10T06:15:39.674Z,2.45
2023-05-10T06:18:07.303Z,3.08
2023-05-10T06:20:34.903Z,3.42
2023-05-10T06:23:02.550Z,1.80
2023-05-10T06:25:30.215Z,1.70
2023-05-10T06:28:06.465Z,2.85
2023-05-10T06:30:34.041Z,2.25
2023-05-10T06:33:01.522Z,3.80
2023-05-10T06:35:30.036Z,1.63
2023-05-10T06:37:59.976Z,4.05
2023-05-10T06:40:27.794Z,2.50
2023-05-10T06:42:55.176Z,2.67
2023-05-10T06:45:22.938Z,1.75
2023-05-10T06:47:52.722Z,3.30
2023-05-10T06:50:20.409Z,2.95
2023-05-10T06:52:47.799Z,4.18
2023-05-10T06:55:15.911Z,2.58
2023-05-10T06:57:46.385Z,3.45
2023-05-10T07:00:15.104Z,1.13
2023-05-10T07:02:42.815Z,1.77
2023-05-10T07:05:10.570Z,2.00
2023-05-10T07:07:38.105Z,1.23
2023-05-10T07:10:06.295Z,2.58
2023-05-10T07:12:34.002Z,2.55
2023-05-10T07:15:01.712Z,2.90
2023-05-10T07:17:29.512Z,4.28
2023-05-10T07:19:57.040Z,3.35
2023-05-10T07:22:24.499Z,3.83
2023-05-10T07:24:52.068Z,2.17
2023-05-10T07:27:19.690Z,2.10
2023-05-10T07:29:47.115Z,2.30
2023-05-10T07:32:14.894Z,2.47
2023-05-10T07:34:42.541Z,2.30
2023-05-10T07:37:10.204Z,4.28
2023-05-10T07:39:38.670Z,3.50
2023-05-10T07:42:06.909Z,1.40
2023-05-10T07:44:34.444Z,3.95
2023-05-10T07:47:02.072Z,1.52
2023-05-10T07:49:29.522Z,1.92
2023-05-10T07:51:57.293Z,1.65
2023-05-10T07:54:24.807Z,1.58
2023-05-10T07:56:53.757Z,2.33
2023-05-10T07:59:21.830Z,3.10
2023-05-10T08:01:50.791Z,3.40
2023-05-10T08:04:18.523Z,3.72
2023-05-10T08:06:47.548Z,3.05
2023-05-10T08:09:16.895Z,2.22
2023-05-10T08:11:44.755Z,1.55
2023-05-10T08:14:12.506Z,3.55
2023-05-10T08:16:40.053Z,1.73
2023-05-10T08:19:07.790Z,2.80
2023-05-10T08:21:35.536Z,3.72
2023-05-10T08:24:03.238Z,2.05
2023-05-10T08:26:31.728Z,2.78
2023-05-10T08:28:59.322Z,5.22
2023-05-10T08:31:26.865Z,4.13
2023-05-10T08:33:54.579Z,5.30
2023-05-10T08:36:25.284Z,2.50
2023-05-10T08:38:53.416Z,2.57
2023-05-10T08:41:22.152Z,3.15
2023-05-10T08:43:51.221Z,2.72
2023-05-10T08:46:21.100Z,2.40
2023-05-10T08:48:50.272Z,2.22
2023-05-10T08:51:27.956Z,3.97
2023-05-10T08:53:56.105Z,3.13
2023-05-10T08:56:26.333Z,4.18
2023-05-10T08:58:54.018Z,2.45
2023-05-10T09:01:22.833Z,2.55
2023-05-10T09:03:55.592Z,2.25
2023-05-10T09:06:27.911Z,3.75
2023-05-10T09:08:57.919Z,2.08
2023-05-10T09:11:25.698Z,2.15
2023-05-10T09:13:53.956Z,2.53
2023-05-10T09:16:22.425Z,2.60
2023-05-10T09:18:53.252Z,2.85
2023-05-10T09:21:24.414Z,1.67
2023-05-10T09:23:57.454Z,3.40
2023-05-10T09:26:29.999Z,1.83
2023-05-10T09:29:01.812Z,3.20
2023-05-10T09:31:52.307Z,2.20
2023-05-10T09:34:22.119Z,1.50
2023-05-10T09:37:02.004Z,3.75
2023-05-10T09:39:38.269Z,1.90
2023-05-10T09:42:10.552Z,3.80
2023-05-10T09:44:39.275Z,2.22
2023-05-10T09:47:06.801Z,1.77
2023-05-10T09:49:34.410Z,2.80
2023-05-10T09:52:04.583Z,2.33
2023-05-10T09:54:33.099Z,3.30
2023-05-10T09:57:01.720Z,5.85
2023-05-10T09:59:30.339Z,2.97
2023-05-10T10:01:59.629Z,2.55
2023-05-10T10:04:27.921Z,1.55
2023-05-10T10:07:03.902Z,2.47
2023-05-10T10:09:32.430Z,2.78
2023-05-10T10:12:01.739Z,2.05
2023-05-10T10:14:30.362Z,4.20
2023-05-10T10:17:08.945Z,2.95
2023-05-10T10:19:38.054Z,3.72
2023-05-10T10:22:07.053Z,6.03
2023-05-10T10:24:34.972Z,2.90
2023-05-10T10:27:36.265Z,5.80
2023-05-10T10:30:27.915Z,2.95
2023-05-10T10:33:44.838Z,6.07
2023-05-10T10:36:17.215Z,3.88
2023-05-10T10:39:03.122Z,1.77
2023-05-10T10:42:01.749Z,3.25
2023-05-10T10:44:39.518Z,2.00
2023-05-10T10:47:34.441Z,3.50
2023-05-10T10:50:07.133Z,3.28
2023-05-10T10:52:40.289Z,3.65
2023-05-10T10:55:13.828Z,4.00
2023-05-10T10:58:05.696Z,2.22
2023-05-10T11:00:36.053Z,3.25
2023-05-10T11:03:08.663Z,2.25
2023-05-10T11:05:44.247Z,1.73
2023-05-10T11:08:31.280Z,5.38
2023-05-10T11:11:08.286Z,4.20
2023-05-10T11:13:50.015Z,3.40
2023-05-10T11:16:26.512Z,2.50
2023-05-10T11:18:59.008Z,2.55
2023-05-10T11:21:27.058Z,2.00
2023-05-10T11:23:59.757Z,2.33
2023-05-10T11:26:37.140Z,2.08
2023-05-10T11:29:06.012Z,2.45
2023-05-10T11:31:34.314Z,2.85
2023-05-10T11:34:02.915Z,3.97
2023-05-10T11:36:35.105Z,3.35
2023-05-10T11:39:03.135Z,3.58
2023-05-10T11:41:31.733Z,3.97
2023-05-10T11:44:00.002Z,2.33
2023-05-10T11:46:29.438Z,2.08
2023-05-10T11:49:03.087Z,3.47
2023-05-10T11:51:33.862Z,3.05
2023-05-10T11:54:01.296Z,8.00
2023-05-10T11:56:28.794Z,5.32
2023-05-10T11:58:58.168Z,2.85
2023-05-10T12:01:27.741Z,2.35
2023-05-10T12:03:59.693Z,4.95
2023-05-10T12:06:32.839Z,3.15
2023-05-10T12:09:06.473Z,2.15
2023-05-10T12:11:41.174Z,2.55
2023-05-10T12:14:11.697Z,2.15
2023-05-10T12:16:39.635Z,3.83
2023-05-10T12:19:07.153Z,3.08
2023-05-10T12:21:34.674Z,3.00
2023-05-10T12:24:06.482Z,3.85
2023-05-10T12:26:34.012Z,3.08
2023-05-10T12:29:18.918Z,2.58
2023-05-10T12:31:54.825Z,2.72
2023-05-10T12:34:32.824Z,2.15
2023-05-10T12:37:01.780Z,2.95
2023-05-10T12:39:43.158Z,3.80
2023-05-10T12:42:11.662Z,5.55
2023-05-10T12:44:39.711Z,2.67
2023-05-10T12:47:07.648Z,2.78
2023-05-10T12:49:37.045Z,2.58
2023-05-10T12:52:05.784Z,3.53
2023-05-10T12:54:33.297Z,5.15
2023-05-10T12:57:00.820Z,2.63
2023-05-10T12:59:28.455Z,3.28
2023-05-10T13:01:55.972Z,4.03
2023-05-10T13:04:23.448Z,5.10
2023-05-10T13:06:50.856Z,4.20
2023-05-10T13:09:18.321Z,6.35
2023-05-10T13:11:46.382Z,7.88
2023-05-10T13:14:14.399Z,2.25
2023-05-10T13:16:42.033Z,2.90
2023-05-10T13:19:09.650Z,2.20
2023-05-10T13:21:37.237Z,4.60
2023-05-10T13:24:04.802Z,4.15
2023-05-10T13:26:32.290Z,3.33
2023-05-10T13:28:59.823Z,3.30
2023-05-10T13:31:27.557Z,2.63
2023-05-10T13:33:55.074Z,3.08
2023-05-10T13:36:23.876Z,2.33
2023-05-10T13:38:52.083Z,3.13
2023-05-10T13:41:20.958Z,3.17
2023-05-10T13:43:50.476Z,2.40
2023-05-10T13:46:20.767Z,3.22
2023-05-10T13:48:48.431Z,3.42
2023-05-10T13:51:15.943Z,3.20
2023-05-10T13:53:46.027Z,2.15
2023-05-10T13:56:14.173Z,2.60
2023-05-10T13:58:42.378Z,2.70
2023-05-10T14:01:09.823Z,4.32
2023-05-10T14:03:38.252Z,9.35
2023-05-10T14:06:05.938Z,2.60
2023-05-10T14:08:33.511Z,2.90
2023-05-10T14:11:01.080Z,2.25
2023-05-10T14:13:28.695Z,2.22
2023-05-10T14:15:56.596Z,2.10
2023-05-10T14:18:24.225Z,2.15
2023-05-10T14:20:51.639Z,3.45
2023-05-10T14:23:21.046Z,2.42
2023-05-10T14:25:48.567Z,2.97
2023-05-10T14:28:17.010Z,2.78
2023-05-10T14:30:44.569Z,1.95
2023-05-10T14:33:12.252Z,1.67
2023-05-10T14:35:40.012Z,2.55
2023-05-10T14:38:07.494Z,2.15
2023-05-10T14:40:35.572Z,3.08
2023-05-10T14:43:03.061Z,2.22
2023-05-10T14:45:30.739Z,3.75
2023-05-10T14:47:59.018Z,3.80
2023-05-10T14:50:36.014Z,2.15
2023-05-10T14:53:04.645Z,3.60
2023-05-10T14:55:32.248Z,2.78
2023-05-10T14:57:59.838Z,2.15
2023-05-10T15:00:30.075Z,2.30
2023-05-10T15:02:59.971Z,1.60
2023-05-10T15:05:27.909Z,2.65
2023-05-10T15:07:55.873Z,2.97
2023-05-10T15:10:23.686Z,1.98
2023-05-10T15:12:51.493Z,2.75
2023-05-10T15:15:19.179Z,1.73
2023-05-10T15:17:46.974Z,1.92
2023-05-10T15:20:14.455Z,2.65
2023-05-10T15:22:42.181Z,2.38
2023-05-10T15:25:10.704Z,1.60
2023-05-10T15:27:38.417Z,2.03
2023-05-10T15:30:07.521Z,2.15
2023-05-10T15:32:34.982Z,1.73
2023-05-10T15:35:03.661Z,2.28
2023-05-10T15:37:31.118Z,2.10
2023-05-10T15:40:04.689Z,1.70
2023-05-10T15:42:36.471Z,2.72
2023-05-10T15:45:05.074Z,1.85
2023-05-10T15:47:33.006Z,3.17
2023-05-10T15:50:01.211Z,2.08
2023-05-10T15:52:28.816Z,1.92
2023-05-10T15:54:56.729Z,3.97
2023-05-10T15:57:24.522Z,1.77
2023-05-10T15:59:52.527Z,2.03
2023-05-10T16:02:20.100Z,1.73
2023-05-10T16:04:47.623Z,2.22
2023-05-10T16:07:15.100Z,2.35
2023-05-10T16:09:42.679Z,2.53
2023-05-10T16:12:10.455Z,1.80
2023-05-10T16:14:37.952Z,1.90
2023-05-10T16:17:06.143Z,3.88
2023-05-10T16:19:33.736Z,2.03
2023-05-10T16:22:01.757Z,1.83
2023-05-10T16:24:29.354Z,2.97
2023-05-10T16:26:56.733Z,2.40
2023-05-10T16:29:24.162Z,2.90
2023-05-10T16:31:51.689Z,2.15
2023-05-10T16:34:20.777Z,2.47
2023-05-10T16:36:48.474Z,3.80
2023-05-10T16:39:16.709Z,2.33
2023-05-10T16:41:44.105Z,3.63
2023-05-10T16:44:11.770Z,4.47
2023-05-10T16:46:39.283Z,3.00
2023-05-10T16:49:07.083Z,2.58
2023-05-10T16:51:34.593Z,2.13
2023-05-10T16:54:02.438Z,3.13
2023-05-10T16:56:29.829Z,3.78
2023-05-10T16:58:59.670Z,2.28
2023-05-10T17:01:27.509Z,2.40
2023-05-10T17:03:55.579Z,1.85
2023-05-10T17:06:23.154Z,1.60
2023-05-10T17:08:50.724Z,1.52
2023-05-10T17:11:20.051Z,1.65
2023-05-10T17:13:47.912Z,1.60
2023-05-10T17:16:15.739Z,3.75
2023-05-10T17:18:43.439Z,1.45
2023-05-10T17:21:11.460Z,1.58
2023-05-10T17:23:38.950Z,1.55
2023-05-10T17:26:07.355Z,1.90
2023-05-10T17:28:44.871Z,1.15
2023-05-10T17:31:12.323Z,1.23
2023-05-10T17:33:39.742Z,2.35
2023-05-10T17:36:07.803Z,0.85
2023-05-10T17:38:36.644Z,0.70
2023-05-10T17:41:04.206Z,1.15
2023-05-10T17:43:31.727Z,1.30
2023-05-10T17:45:59.630Z,1.10
2023-05-10T17:48:27.807Z,1.30
2023-05-10T17:50:56.456Z,1.83
2023-05-10T17:53:24.673Z,2.63
2023-05-10T17:55:52.571Z,1.52
2023-05-10T17:58:19.976Z,1.00
2023-05-10T18:00:47.749Z,1.25
2023-05-10T18:03:15.493Z,1.45
2023-05-10T18:05:42.997Z,0.98
2023-05-10T18:08:11.001Z,0.85
2023-05-10T18:10:41.253Z,0.88
2023-05-10T18:13:09.468Z,0.98
2023-05-10T18:15:37.767Z,0.90
2023-05-10T18:18:05.355Z,1.98
2023-05-10T18:20:33.187Z,1.15
2023-05-10T18:23:00.608Z,1.15
2023-05-10T18:25:28.203Z,0.98
2023-05-10T18:27:55.829Z,1.40
2023-05-10T18:30:23.361Z,2.97
2023-05-10T18:32:50.924Z,1.63
2023-05-10T18:35:18.954Z,1.38
2023-05-10T18:37:46.546Z,1.45
2023-05-10T18:40:14.515Z,1.88
2023-05-10T18:42:46.782Z,0.85
2023-05-10T18:45:14.632Z,2.10
2023-05-10T18:47:43.163Z,1.73
2023-05-10T18:50:11.347Z,2.67
2023-05-10T18:52:38.928Z,2.25
2023-05-10T18:55:07.454Z,2.10
2023-05-10T18:57:41.653Z,1.60
2023-05-10T19:00:12.712Z,0.93
2023-05-10T19:02:41.132Z,1.98
2023-05-10T19:05:09.548Z,2.28
2023-05-10T19:07:37.019Z,3.95
2023-05-10T19:10:04.924Z,3.08
2023-05-10T19:12:32.612Z,2.65
2023-05-10T19:15:00.386Z,4.18
2023-05-10T19:17:30.151Z,2.72
2023-05-10T19:19:59.252Z,2.50
2023-05-10T19:22:44.984Z,2.03
2023-05-10T19:25:19.841Z,1.90
2023-05-10T19:27:47.529Z,2.13
2023-05-10T19:30:15.078Z,3.30
2023-05-10T19:32:45.720Z,3.05
2023-05-10T19:35:13.263Z,2.08
2023-05-10T19:37:46.085Z,2.10
2023-05-10T19:40:16.026Z,1.92
2023-05-10T19:42:46.329Z,3.28
2023-05-10T19:45:15.780Z,2.05
2023-05-10T19:47:43.827Z,2.10
2023-05-10T19:50:12.687Z,2.10
2023-05-10T19:52:40.329Z,2.20
2023-05-10T19:55:08.858Z,2.53
2023-05-10T19:57:36.539Z,2.47
2023-05-10T20:00:08.094Z,3.75
2023-05-10T20:02:38.597Z,3.63
2023-05-10T20:05:06.716Z,2.83
2023-05-10T20:07:34.113Z,4.05
2023-05-10T20:10:01.502Z,2.72
2023-05-10T20:12:28.898Z,2.70
2023-05-10T20:14:56.521Z,3.13
2023-05-10T20:17:24.418Z,4.18
2023-05-10T20:19:54.752Z,3.20
2023-05-10T20:22:22.127Z,3.33
2023-05-10T20:24:49.819Z,3.58
2023-05-10T20:27:17.353Z,3.42
2023-05-10T20:29:44.719Z,2.63
2023-05-10T20:32:12.140Z,2.75
2023-05-10T20:34:39.630Z,3.28
2023-05-10T20:37:08.209Z,3.15
2023-05-10T20:39:35.587Z,3.03
2023-05-10T20:42:03.903Z,2.85
2023-05-10T20:44:34.263Z,7.13
2023-05-10T20:47:01.956Z,16.15
2023-05-10T20:49:31.794Z,13.10
2023-05-10T20:51:59.288Z,14.75
2023-05-10T20:54:26.843Z,11.52
2023-05-10T20:56:54.503Z,12.98
2023-05-10T20:59:21.954Z,10.18
2023-05-10T21:01:49.462Z,9.60
2023-05-10T21:04:16.976Z,9.15
2023-05-10T21:06:45.739Z,12.98
2023-05-10T21:09:13.140Z,11.88
2023-05-10T21:11:40.714Z,10.30
2023-05-10T21:14:08.676Z,9.88
2023-05-10T21:16:39.010Z,6.32
2023-05-10T21:19:09.604Z,7.13
2023-05-10T21:21:37.764Z,7.35
2023-05-10T21:24:06.023Z,5.88
2023-05-10T21:26:33.693Z,6.43
2023-05-10T21:29:01.260Z,9.35
2023-05-10T21:31:29.206Z,8.13
2023-05-10T21:33:57.228Z,7.63
2023-05-10T21:36:28.223Z,6.65
2023-05-10T21:38:55.761Z,8.00
2023-05-10T21:41:23.344Z,7.57
2023-05-10T21:43:51.283Z,7.20
2023-05-10T21:46:18.790Z,7.68
2023-05-10T21:48:46.330Z,7.72
2023-05-10T21:51:14.204Z,6.10
2023-05-10T21:53:41.713Z,5.38
2023-05-10T21:56:09.122Z,5.95
2023-05-10T21:58:39.671Z,3.92
2023-05-10T22:01:07.139Z,3.97
2023-05-10T22:03:34.756Z,3.20
2023-05-10T22:06:02.443Z,3.10
2023-05-10T22:08:30.174Z,3.65
2023-05-10T22:10:57.658Z,3.15
2023-05-10T22:13:25.430Z,3.42
2023-05-10T22:15:52.982Z,3.28
2023-05-10T22:18:20.825Z,3.80
2023-05-10T22:20:48.637Z,3.40
2023-05-10T22:23:18.900Z,3.78
2023-05-10T22:25:46.447Z,3.78
2023-05-10T22:28:14.031Z,3.17
2023-05-10T22:30:42.978Z,2.83
2023-05-10T22:33:12.816Z,3.72
2023-05-10T22:35:41.068Z,3.35
2023-05-10T22:38:08.499Z,3.63
2023-05-10T22:40:35.940Z,2.90
2023-05-10T22:43:03.431Z,3.28
2023-05-10T22:45:31.026Z,3.28
2023-05-10T22:47:59.392Z,2.90
2023-05-10T22:50:27.289Z,3.67
2023-05-10T22:52:54.800Z,3.88
2023-05-10T22:55:22.651Z,3.72
2023-05-10T22:57:50.984Z,4.03
2023-05-10T23:00:18.937Z,3.65
2023-05-10T23:02:46.751Z,3.42
2023-05-10T23:05:14.361Z,3.38
2023-05-10T23:07:41.775Z,3.90
2023-05-10T23:10:09.997Z,3.17
2023-05-10T23:12:37.591Z,3.35
2023-05-10T23:15:06.283Z,3.70
2023-05-10T23:17:33.765Z,3.13
2023-05-10T23:20:01.253Z,4.72
2023-05-10T23:22:28.648Z,4.45
2023-05-10T23:24:56.336Z,3.22
2023-05-10T23:27:23.773Z,3.53
2023-05-10T23:29:57.449Z,4.38
2023-05-10T23:32:25.034Z,3.95
2023-05-10T23:34:53.444Z,4.93
2023-05-10T23:37:21.468Z,3.08
2023-05-10T23:39:52.329Z,3.78
2023-05-10T23:42:20.038Z,3.63
2023-05-10T23:44:47.563Z,3.83
2023-05-10T23:47:14.984Z,4.85
2023-05-10T23:49:45.635Z,4.68
2023-05-10T23:52:13.088Z,4.05
2023-05-10T23:54:40.505Z,4.13
2023-05-10T23:57:08.125Z,4.03
2023-05-10T23:59:35.606Z,5.07
